Time;durP1;ratioP1;P1;durP2;ratioP2;P2;SDS_P1;SDS_P2;PMS_P1;PMS_P2;Temp;Humidity;BMP_temperature;BMP_pressure;BME280_temperature;BME280_humidity;BME280_pressure;Samples;Min_cycle;Max_cycle;Signal;HPM_P1;HPM_P2
2022/04/11 00:02:00;;;;;;;12.27;8.82;;;3.20;15.00;;;;;;7362404;19;20457;-62
2022/04/11 00:04:31;;;;;;;12.05;8.13;;;3.20;15.00;;;;;;7380794;19;20026;-61
2022/04/11 00:07:01;;;;;;;11.63;8.65;;;3.20;15.00;;;;;;7363742;19;20523;-62
2022/04/11 00:09:31;;;;;;;13.23;7.95;;;3.10;15.90;;;;;;7365837;19;20081;-61
2022/04/11 00:12:01;;;;;;;13.10;8.05;;;3.10;16.20;;;;;;7360991;19;20010;-61
2022/04/11 00:14:33;;;;;;;9.63;7.30;;;3.10;15.90;;;;;;7360833;19;20024;-61
2022/04/11 00:17:03;;;;;;;11.60;7.72;;;3.10;15.70;;;;;;7362895;19;20020;-63
2022/04/11 00:19:33;;;;;;;11.85;7.20;;;3.00;15.90;;;;;;7385920;19;20017;-62
2022/04/11 00:22:03;;;;;;;9.18;6.85;;;3.00;16.30;;;;;;7361025;19;20466;-61
2022/04/11 00:24:33;;;;;;;9.82;7.80;;;3.00;16.90;;;;;;7356543;19;20364;-62
2022/04/11 00:27:02;;;;;;;11.40;7.03;;;2.90;17.10;;;;;;7362431;19;20486;-60
2022/04/11 00:29:35;;;;;;;12.95;7.90;;;3.00;17.40;;;;;;7364498;19;20421;-60
2022/04/11 00:32:05;;;;;;;9.38;6.88;;;3.00;18.10;;;;;;7362128;19;20018;-61
2022/04/11 00:34:35;;;;;;;13.85;7.95;;;2.90;18.30;;;;;;7380907;19;20114;-60
2022/04/11 00:37:06;;;;;;;11.55;7.93;;;3.00;17.80;;;;;;7362186;19;20016;-60
2022/04/11 00:39:36;;;;;;;10.60;8.10;;;2.90;18.30;;;;;;7365188;19;20052;-60
2022/04/11 00:42:11;;;;;;;13.20;7.63;;;3.00;18.30;;;;;;7360875;19;20069;-60
2022/04/11 00:44:43;;;;;;;11.27;7.60;;;3.10;17.70;;;;;;7358788;19;20006;-60
2022/04/11 00:47:13;;;;;;;10.95;6.93;;;3.00;17.80;;;;;;7362055;19;20015;-61
2022/04/11 00:49:43;;;;;;;9.35;6.90;;;3.00;16.70;;;;;;7364320;19;20026;-62
2022/04/11 00:52:13;;;;;;;10.82;7.25;;;3.00;16.80;;;;;;7382341;19;20011;-62
2022/04/11 00:54:44;;;;;;;10.45;6.40;;;3.00;16.40;;;;;;7356524;19;20078;-62
2022/04/11 00:57:15;;;;;;;9.65;6.50;;;3.00;16.00;;;;;;7360319;19;20527;-61
2022/04/11 00:59:47;;;;;;;9.35;6.00;;;3.00;16.00;;;;;;7362431;19;20006;-60
2022/04/11 01:02:17;;;;;;;8.63;5.15;;;2.90;15.80;;;;;;7361661;19;20010;-60
2022/04/11 01:04:48;;;;;;;8.32;5.80;;;2.90;16.30;;;;;;7357817;19;20674;-64
2022/04/11 01:07:19;;;;;;;9.35;5.82;;;2.90;16.40;;;;;;7383623;19;20527;-61
2022/04/11 01:09:49;;;;;;;7.28;6.07;;;3.00;15.80;;;;;;7363844;19;20038;-61
2022/04/11 01:12:19;;;;;;;9.65;6.22;;;3.00;15.40;;;;;;7358709;19;20010;-60
2022/04/11 01:14:51;;;;;;;9.43;6.13;;;2.90;15.50;;;;;;7358936;19;20540;-61
2022/04/11 01:17:21;;;;;;;7.78;6.20;;;2.90;15.70;;;;;;7362277;19;20014;-62
2022/04/11 01:19:51;;;;;;;11.50;6.63;;;2.90;15.60;;;;;;7361774;19;20014;-61
2022/04/11 01:22:23;;;;;;;14.23;7.00;;;2.80;15.80;;;;;;7380952;19;20021;-64
2022/04/11 01:24:56;;;;;;;10.70;6.32;;;2.90;16.00;;;;;;7356755;19;20010;-62
2022/04/11 01:27:28;;;;;;;11.95;7.22;;;2.90;15.80;;;;;;7362889;19;20011;-60
2022/04/11 01:29:57;;;;;;;16.33;6.90;;;2.90;15.60;;;;;;7363140;19;20018;-60
2022/04/11 01:32:28;;;;;;;8.82;6.45;;;2.90;15.50;;;;;;7359174;19;20095;-61
2022/04/11 01:34:59;;;;;;;10.75;7.18;;;2.80;15.80;;;;;;7362281;19;20121;-61
2022/04/11 01:37:32;;;;;;;11.55;7.05;;;2.80;16.60;;;;;;7392285;19;20082;-61
2022/04/11 01:40:01;;;;;;;9.07;6.85;;;2.70;17.10;;;;;;7366902;19;20474;-60
2022/04/11 01:42:31;;;;;;;10.40;6.25;;;2.70;17.30;;;;;;7366759;19;20050;-61
2022/04/11 01:45:03;;;;;;;9.93;6.82;;;2.80;17.40;;;;;;7363524;19;20014;-61
2022/04/11 01:47:33;;;;;;;11.27;6.20;;;2.90;16.60;;;;;;7370617;19;20011;-62
2022/04/11 01:50:03;;;;;;;9.70;6.78;;;3.00;15.60;;;;;;7370314;19;20101;-61
2022/04/11 01:52:37;;;;;;;9.40;6.70;;;3.00;14.80;;;;;;7388592;19;20017;-61
2022/04/11 01:55:08;;;;;;;8.77;6.60;;;3.10;14.80;;;;;;7360603;19;20014;-61
2022/04/11 01:57:46;;;;;;;11.05;6.85;;;3.10;14.70;;;;;;7368245;19;20011;-61
2022/04/11 02:00:17;;;;;;;11.40;6.85;;;3.10;13.40;;;;;;7368964;19;20078;-61
2022/04/11 02:02:47;;;;;;;10.48;6.50;;;3.10;13.40;;;;;;7366810;19;20098;-61
2022/04/11 02:05:17;;;;;;;8.65;6.55;;;3.10;13.20;;;;;;7361286;19;20006;-61
2022/04/11 02:07:50;;;;;;;8.40;6.20;;;3.10;13.90;;;;;;7368890;19;20010;-61
2022/04/11 02:10:20;;;;;;;10.75;5.82;;;3.10;13.10;;;;;;7391265;19;20763;-61
2022/04/11 02:12:50;;;;;;;8.25;6.00;;;3.10;13.20;;;;;;7365660;19;20034;-61
2022/04/11 02:15:20;;;;;;;7.13;5.10;;;3.10;14.40;;;;;;7361439;19;20010;-61
2022/04/11 02:17:50;;;;;;;7.70;5.43;;;3.00;13.20;;;;;;7369285;19;20014;-61
2022/04/11 02:20:20;;;;;;;10.25;5.20;;;3.00;13.20;;;;;;7366923;19;20020;-61
2022/04/11 02:22:55;;;;;;;9.20;5.32;;;3.00;13.30;;;;;;7366188;19;20027;-61
2022/04/11 02:25:27;;;;;;;8.15;5.07;;;3.00;13.60;;;;;;7379619;19;20022;-61
2022/04/11 02:27:58;;;;;;;6.88;4.47;;;2.90;13.50;;;;;;7365232;19;20018;-61
2022/04/11 02:30:29;;;;;;;9.80;5.32;;;2.90;14.10;;;;;;7364665;19;20010;-61
2022/04/11 02:32:59;;;;;;;9.27;5.45;;;2.90;14.80;;;;;;7362195;19;20470;-61
2022/04/11 02:35:29;;;;;;;8.43;5.20;;;2.90;14.80;;;;;;7358240;19;20062;-61
2022/04/11 02:38:01;;;;;;;9.73;5.22;;;2.80;14.70;;;;;;7365046;19;20015;-61
2022/04/11 02:40:31;;;;;;;9.05;5.20;;;2.70;15.10;;;;;;7385183;19;20085;-60
2022/04/11 02:43:01;;;;;;;8.98;5.05;;;2.80;15.80;;;;;;7361313;19;20010;-61
2022/04/11 02:45:31;;;;;;;6.57;5.50;;;2.80;15.20;;;;;;7358580;19;20010;-61
2022/04/11 02:48:07;;;;;;;5.53;4.63;;;2.80;15.00;;;;;;7364242;19;20006;-61
2022/04/11 02:50:36;;;;;;;8.25;5.40;;;2.80;14.70;;;;;;7364801;19;20014;-60
2022/04/11 02:53:09;;;;;;;8.95;6.00;;;2.70;15.30;;;;;;7363450;19;20079;-61
2022/04/11 02:55:39;;;;;;;6.70;4.93;;;2.60;15.70;;;;;;7378784;19;20021;-67
2022/04/11 02:58:09;;;;;;;10.02;5.50;;;2.70;16.00;;;;;;7387027;19;20039;-61
2022/04/11 03:00:39;;;;;;;8.65;5.50;;;2.70;16.00;;;;;;7362921;19;20086;-62
2022/04/11 03:03:10;;;;;;;6.18;5.10;;;2.60;15.60;;;;;;7362413;19;20014;-62
2022/04/11 03:05:40;;;;;;;9.38;5.50;;;2.60;16.00;;;;;;7357827;19;20024;-60
2022/04/11 03:08:12;;;;;;;10.00;5.43;;;2.60;16.40;;;;;;7365318;19;20015;-60
2022/04/11 03:10:42;;;;;;;9.07;5.82;;;2.60;17.00;;;;;;7365171;19;20017;-60
2022/04/11 03:13:12;;;;;;;10.65;5.90;;;2.60;17.00;;;;;;7380792;19;20531;-62
2022/04/11 03:15:42;;;;;;;8.25;5.65;;;2.40;17.60;;;;;;7359176;19;21093;-61
2022/04/11 03:18:12;;;;;;;7.13;5.15;;;2.60;18.10;;;;;;7364689;19;20013;-61
2022/04/11 03:20:42;;;;;;;9.55;5.57;;;2.60;18.00;;;;;;7364403;19;20474;-61
2022/04/11 03:23:15;;;;;;;8.30;5.30;;;2.60;17.20;;;;;;7361200;19;20082;-61
2022/04/11 03:25:45;;;;;;;9.95;5.47;;;2.60;17.50;;;;;;7217412;19;2737304;-61
2022/04/11 03:28:14;;;;;;;7.45;5.40;;;2.50;17.00;;;;;;7388846;19;20025;-61
2022/04/11 03:30:44;;;;;;;7.50;5.40;;;2.50;17.50;;;;;;7366346;19;20504;-61
2022/04/11 03:33:14;;;;;;;8.52;5.75;;;2.50;18.00;;;;;;7363110;19;20011;-61
2022/04/11 03:35:45;;;;;;;8.98;5.75;;;2.50;17.20;;;;;;7359618;19;20029;-61
2022/04/11 03:38:17;;;;;;;10.15;6.10;;;2.50;17.10;;;;;;7366347;19;20015;-60
2022/04/11 03:40:48;;;;;;;7.82;5.75;;;2.50;18.00;;;;;;7365136;19;20340;-61
2022/04/11 03:43:18;;;;;;;11.43;5.50;;;2.40;17.90;;;;;;7384872;19;20081;-61
2022/04/11 03:45:48;;;;;;;6.80;5.70;;;2.50;18.00;;;;;;7359590;19;20017;-61
2022/04/11 03:48:18;;;;;;;8.65;5.63;;;2.40;18.00;;;;;;7365447;19;20850;-60
2022/04/11 03:50:48;;;;;;;9.68;6.30;;;2.40;17.90;;;;;;7366024;19;20540;-61
2022/04/11 03:53:20;;;;;;;12.02;6.63;;;2.50;18.20;;;;;;7362821;19;20017;-61
2022/04/11 03:55:50;;;;;;;10.52;6.03;;;2.50;18.20;;;;;;7356218;19;20027;-61
2022/04/11 03:58:20;;;;;;;9.18;5.80;;;2.50;18.70;;;;;;7387881;19;20018;-61
2022/04/11 04:00:50;;;;;;;10.27;5.93;;;2.50;18.40;;;;;;7364504;19;20014;-60
2022/04/11 04:03:20;;;;;;;11.98;6.55;;;2.40;18.50;;;;;;7361438;19;20025;-61
2022/04/11 04:05:50;;;;;;;12.13;7.53;;;2.40;19.90;;;;;;7358381;19;20010;-61
2022/04/11 04:08:22;;;;;;;12.13;7.15;;;2.40;20.50;;;;;;7363750;19;20477;-61
2022/04/11 04:10:52;;;;;;;11.35;7.25;;;2.40;20.90;;;;;;7365785;19;20020;-61
2022/04/11 04:13:22;;;;;;;12.60;6.97;;;2.40;21.00;;;;;;7384034;19;20019;-61
2022/04/11 04:15:53;;;;;;;10.45;7.22;;;2.40;20.80;;;;;;7359279;19;20457;-61
2022/04/11 04:18:22;;;;;;;7.43;6.53;;;2.40;20.50;;;;;;7365225;19;20006;-61
2022/04/11 04:20:52;;;;;;;9.70;6.43;;;2.40;20.70;;;;;;7364301;19;20014;-61
2022/04/11 04:23:25;;;;;;;9.25;6.55;;;2.40;20.40;;;;;;7361183;19;20017;-61
2022/04/11 04:25:56;;;;;;;8.07;7.00;;;2.30;20.10;;;;;;7359759;19;20014;-61
2022/04/11 04:28:26;;;;;;;9.38;6.20;;;2.30;20.70;;;;;;7387268;19;20047;-60
2022/04/11 04:30:56;;;;;;;11.40;6.82;;;2.20;21.30;;;;;;7363531;19;20006;-61
2022/04/11 04:33:26;;;;;;;9.65;7.07;;;2.20;21.30;;;;;;7360295;19;20010;-61
2022/04/11 04:35:56;;;;;;;13.95;8.13;;;2.30;20.90;;;;;;7359082;19;20014;-61
2022/04/11 04:38:28;;;;;;;9.75;7.18;;;2.40;19.80;;;;;;7364275;19;20010;-61
2022/04/11 04:40:59;;;;;;;12.15;7.05;;;2.40;18.70;;;;;;7364302;19;20478;-61
2022/04/11 04:43:30;;;;;;;13.13;7.43;;;2.30;20.20;;;;;;7382906;19;20014;-61
2022/04/11 04:46:00;;;;;;;9.55;6.82;;;2.20;21.10;;;;;;7356844;19;20006;-61
2022/04/11 04:48:29;;;;;;;11.70;7.05;;;2.20;20.40;;;;;;7364123;19;20017;-61
2022/04/11 04:50:59;;;;;;;11.02;7.47;;;2.20;21.20;;;;;;7363987;19;20074;-61
2022/04/11 04:53:32;;;;;;;11.55;7.75;;;2.10;21.30;;;;;;7360816;19;20014;-61
2022/04/11 04:56:02;;;;;;;12.75;7.00;;;2.10;21.80;;;;;;7357959;19;20006;-60
2022/04/11 04:58:32;;;;;;;8.82;6.38;;;2.20;22.30;;;;;;7385494;19;20380;-61
2022/04/11 05:01:02;;;;;;;8.60;7.13;;;2.30;20.50;;;;;;7362521;19;20809;-60
2022/04/11 05:03:32;;;;;;;12.48;7.03;;;2.20;19.80;;;;;;7359431;19;20023;-60
2022/04/11 05:06:02;;;;;;;10.88;6.72;;;2.40;19.10;;;;;;7355930;19;20014;-60
2022/04/11 05:08:35;;;;;;;12.52;6.90;;;2.30;19.20;;;;;;7363383;19;20200;-60
2022/04/11 05:11:05;;;;;;;13.27;7.40;;;2.30;19.10;;;;;;7363246;19;20041;-60
2022/04/11 05:13:36;;;;;;;11.80;7.47;;;2.30;19.40;;;;;;7380800;19;20011;-61
2022/04/11 05:16:07;;;;;;;11.10;7.28;;;2.30;19.00;;;;;;7357190;19;20016;-61
2022/04/11 05:18:37;;;;;;;10.70;6.88;;;2.40;19.50;;;;;;7362731;19;20014;-60
2022/04/11 05:21:07;;;;;;;13.25;7.97;;;2.70;18.20;;;;;;7362585;19;20033;-60
2022/04/11 05:23:41;;;;;;;16.33;7.68;;;3.00;15.40;;;;;;7358577;19;20083;-60
2022/04/11 05:26:11;;;;;;;11.15;7.22;;;3.10;14.00;;;;;;7356218;19;20014;-60
2022/04/11 05:28:41;;;;;;;13.10;6.63;;;2.90;13.10;;;;;;7363071;19;20082;-61
2022/04/11 05:31:11;;;;;;;12.88;6.72;;;2.70;13.70;;;;;;7379497;19;20045;-61
2022/04/11 05:33:41;;;;;;;14.30;7.05;;;3.30;11.10;;;;;;7350151;19;20015;-61
2022/04/11 05:36:11;;;;;;;12.70;8.00;;;3.90;7.80;;;;;;7354976;19;20070;-61
2022/04/11 05:38:43;;;;;;;11.02;6.70;;;3.70;8.10;;;;;;7360532;19;20066;-61
2022/04/11 05:41:14;;;;;;;11.68;7.18;;;3.60;9.20;;;;;;7360406;19;20502;-61
2022/04/11 05:43:44;;;;;;;10.45;6.53;;;3.80;8.70;;;;;;7357224;19;20066;-61
2022/04/11 05:46:14;;;;;;;11.77;6.82;;;3.80;8.20;;;;;;7377776;19;20167;-61
2022/04/11 05:48:45;;;;;;;10.57;6.78;;;3.80;7.50;;;;;;7362047;19;20390;-60
2022/04/11 05:51:15;;;;;;;12.27;7.03;;;3.60;7.40;;;;;;7363036;19;20014;-60
2022/04/11 05:53:47;;;;;;;11.38;6.72;;;3.60;7.70;;;;;;7357990;19;20021;-60
2022/04/11 05:56:17;;;;;;;10.23;7.03;;;3.70;8.10;;;;;;7356890;19;20474;-60
2022/04/11 05:58:47;;;;;;;7.88;6.63;;;3.90;6.90;;;;;;7361675;19;20021;-61
2022/04/11 06:01:17;;;;;;;13.80;6.38;;;4.10;5.60;;;;;;7382861;19;20490;-59
2022/04/11 06:03:47;;;;;;;10.40;6.00;;;4.30;5.10;;;;;;7356569;19;20431;-60
2022/04/11 06:06:18;;;;;;;11.25;6.35;;;4.70;3.70;;;;;;7356299;19;20032;-60
2022/04/11 06:08:51;;;;;;;9.35;5.85;;;4.80;1.50;;;;;;7361633;19;20073;-60
2022/04/11 06:11:21;;;;;;;7.20;5.28;;;4.80;1.00;;;;;;7360898;19;20007;-60
2022/04/11 06:13:50;;;;;;;9.85;6.05;;;5.00;1.00;;;;;;7356539;19;20018;-61
2022/04/11 06:16:20;;;;;;;11.80;6.10;;;4.90;1.00;;;;;;7376625;19;20007;-62
2022/04/11 06:18:50;;;;;;;7.80;5.78;;;5.10;1.00;;;;;;7360757;19;20017;-59
2022/04/11 06:21:20;;;;;;;12.45;5.93;;;5.30;1.00;;;;;;7367648;19;20015;-60
2022/04/11 06:23:53;;;;;;;7.85;5.65;;;5.20;1.00;;;;;;7362922;19;20029;-60
2022/04/11 06:26:22;;;;;;;11.63;5.88;;;5.30;1.00;;;;;;7362466;19;20020;-61
2022/04/11 06:28:52;;;;;;;8.95;5.47;;;5.40;1.00;;;;;;7367782;19;20600;-61
2022/04/11 06:31:22;;;;;;;9.05;5.90;;;5.30;1.00;;;;;;7389274;19;20439;-59
2022/04/11 06:33:52;;;;;;;9.73;6.68;;;5.40;1.00;;;;;;7362566;19;20298;-60
2022/04/11 06:36:22;;;;;;;11.70;6.40;;;5.50;1.00;;;;;;7361390;19;20021;-60
2022/04/11 06:38:54;;;;;;;9.18;5.90;;;5.60;1.00;;;;;;7367600;19;20013;-61
2022/04/11 06:41:30;;;;;;;9.57;5.40;;;5.70;1.00;;;;;;7367202;19;20007;-60
2022/04/11 06:44:01;;;;;;;10.55;6.00;;;5.90;1.00;;;;;;7363206;19;20004;-60
2022/04/11 06:46:31;;;;;;;10.32;5.30;;;6.00;1.00;;;;;;7383864;19;20011;-61
2022/04/11 06:49:01;;;;;;;8.32;5.35;;;6.20;1.00;;;;;;7366084;19;20014;-61
2022/04/11 06:51:31;;;;;;;11.00;5.38;;;6.10;1.00;;;;;;7366913;19;20012;-60
2022/04/11 06:54:04;;;;;;;7.55;5.15;;;6.00;1.00;;;;;;7361190;19;20386;-60
2022/04/11 06:56:34;;;;;;;9.40;5.22;;;6.10;1.00;;;;;;7361992;19;20458;-60
2022/04/11 06:59:04;;;;;;;8.85;5.72;;;6.10;1.00;;;;;;7365805;19;20502;-60
2022/04/11 07:01:33;;;;;;;9.70;5.47;;;6.20;1.00;;;;;;7388752;19;20014;-60
2022/04/11 07:04:03;;;;;;;11.18;5.75;;;6.40;1.00;;;;;;7362492;19;20820;-60
2022/04/11 07:06:33;;;;;;;9.30;5.72;;;6.40;1.00;;;;;;7361418;19;20081;-61
2022/04/11 07:09:06;;;;;;;8.63;5.10;;;6.60;1.00;;;;;;7366687;19;20015;-61
2022/04/11 07:11:36;;;;;;;11.57;5.35;;;6.60;1.00;;;;;;7366354;19;20017;-60
2022/04/11 07:14:06;;;;;;;7.63;4.60;;;6.70;1.00;;;;;;7361722;19;20019;-60
2022/04/11 07:16:37;;;;;;;9.88;5.78;;;6.90;1.00;;;;;;7383616;19;20366;-61
2022/04/11 07:19:07;;;;;;;9.57;5.72;;;6.90;1.00;;;;;;7365830;19;20494;-61
2022/04/11 07:21:36;;;;;;;6.63;4.95;;;7.10;1.00;;;;;;7365855;19;20093;-59
2022/04/11 07:24:09;;;;;;;8.07;5.80;;;7.10;1.00;;;;;;7361597;19;20018;-60
2022/04/11 07:26:40;;;;;;;7.38;5.45;;;7.40;1.00;;;;;;7361543;19;20089;-61
2022/04/11 07:29:10;;;;;;;7.53;4.82;;;7.40;1.00;;;;;;7365590;19;20018;-60
2022/04/11 07:31:40;;;;;;;7.85;4.90;;;7.60;1.00;;;;;;7375773;19;20013;-61
2022/04/11 07:34:10;;;;;;;8.68;4.85;;;7.80;1.00;;;;;;7381601;19;20486;-61
2022/04/11 07:36:40;;;;;;;6.97;4.90;;;7.70;1.00;;;;;;7356591;19;20014;-61
2022/04/11 07:39:13;;;;;;;7.13;4.90;;;7.80;1.00;;;;;;7364129;19;20051;-61
2022/04/11 07:41:43;;;;;;;9.32;4.63;;;7.80;1.00;;;;;;7364985;19;20541;-61
2022/04/11 07:44:13;;;;;;;7.05;4.80;;;8.00;1.00;;;;;;7360993;19;20082;-60
2022/04/11 07:46:43;;;;;;;7.88;5.05;;;8.00;1.00;;;;;;7361876;19;20015;-60
2022/04/11 07:49:13;;;;;;;8.05;4.68;;;8.00;1.00;;;;;;7387346;19;20014;-61
2022/04/11 07:51:43;;;;;;;6.10;4.72;;;8.30;1.00;;;;;;7364147;19;20014;-61
2022/04/11 07:54:15;;;;;;;7.32;5.05;;;8.50;1.00;;;;;;7358911;19;20021;-63
2022/04/11 07:56:45;;;;;;;8.30;4.95;;;8.50;1.00;;;;;;7360722;19;20015;-61
2022/04/11 07:59:15;;;;;;;7.28;4.95;;;8.70;1.00;;;;;;7366078;19;20031;-61
2022/04/11 08:01:45;;;;;;;6.80;4.45;;;8.70;1.00;;;;;;7365049;19;20089;-61
2022/04/11 08:04:16;;;;;;;7.78;4.47;;;8.80;1.00;;;;;;7381248;19;20015;-61
2022/04/11 08:06:45;;;;;;;6.75;4.05;;;9.00;1.00;;;;;;7361497;19;20056;-61
2022/04/11 08:09:18;;;;;;;7.63;5.03;;;9.00;1.00;;;;;;7365266;19;20018;-60
2022/04/11 08:11:48;;;;;;;6.85;4.38;;;8.90;1.00;;;;;;7363761;19;20010;-63
2022/04/11 08:14:19;;;;;;;7.35;4.47;;;9.00;1.00;;;;;;7359478;19;20013;-60
2022/04/11 08:16:49;;;;;;;6.30;4.60;;;8.90;1.00;;;;;;7360943;19;20101;-61
2022/04/11 08:19:19;;;;;;;9.63;4.43;;;9.00;1.00;;;;;;7386236;19;20014;-62
2022/04/11 08:21:49;;;;;;;5.03;3.75;;;9.00;1.00;;;;;;7364301;19;20110;-62
2022/04/11 08:24:21;;;;;;;6.80;3.92;;;9.50;1.00;;;;;;7357960;19;20905;-61
2022/04/11 08:26:51;;;;;;;7.55;3.92;;;9.60;1.00;;;;;;7361274;19;20350;-61
2022/04/11 08:29:21;;;;;;;4.80;3.83;;;9.40;1.00;;;;;;7364019;19;20014;-62
2022/04/11 08:31:51;;;;;;;5.18;4.13;;;9.90;1.00;;;;;;7359974;19;20017;-61
2022/04/11 08:34:21;;;;;;;5.05;4.07;;;10.10;1.00;;;;;;7380206;19;20018;-60
2022/04/11 08:36:51;;;;;;;5.55;4.03;;;9.80;1.00;;;;;;7359690;19;20017;-60
2022/04/11 08:39:26;;;;;;;6.40;3.70;;;10.00;1.00;;;;;;7364268;19;20011;-61
2022/04/11 08:42:02;;;;;;;5.35;4.03;;;10.10;1.00;;;;;;7361358;19;20815;-61
2022/04/11 08:44:38;;;;;;;8.65;3.78;;;10.00;1.00;;;;;;7358833;19;20262;-60
2022/04/11 08:47:09;;;;;;;7.88;4.57;;;10.10;1.00;;;;;;7361339;19;20653;-61
2022/04/11 08:49:39;;;;;;;4.18;3.65;;;10.20;1.00;;;;;;7384789;19;20010;-61
2022/04/11 08:52:10;;;;;;;7.25;3.45;;;10.30;1.00;;;;;;7360589;19;20007;-61
2022/04/11 08:54:43;;;;;;;6.60;3.50;;;10.60;1.00;;;;;;7358368;19;20011;-60
2022/04/11 08:57:13;;;;;;;5.22;3.75;;;10.60;1.00;;;;;;7359493;19;20010;-61
2022/04/11 08:59:43;;;;;;;4.43;3.75;;;10.50;1.00;;;;;;7364886;19;20282;-61
2022/04/11 09:02:13;;;;;;;4.18;3.30;;;10.50;1.00;;;;;;7359788;19;20016;-61
2022/04/11 09:04:54;;;;;;;5.60;3.67;;;10.40;1.00;;;;;;7357235;19;20482;-61
2022/04/11 09:07:24;;;;;;;4.60;3.05;;;10.60;1.00;;;;;;7380936;19;20030;-60
2022/04/11 09:10:02;;;;;;;3.85;3.30;;;10.70;1.00;;;;;;7363067;19;20493;-61
2022/04/11 09:12:32;;;;;;;5.55;3.60;;;11.00;1.00;;;;;;7358876;19;20525;-61
2022/04/11 09:15:08;;;;;;;5.70;3.60;;;11.20;1.00;;;;;;7358623;19;20502;-61
2022/04/11 09:17:43;;;;;;;6.35;3.53;;;11.00;1.00;;;;;;7359725;19;20014;-61
2022/04/11 09:20:14;;;;;;;6.43;3.92;;;11.00;1.00;;;;;;7363203;19;20588;-61
2022/04/11 09:22:45;;;;;;;7.40;3.50;;;11.30;1.00;;;;;;7358590;19;20082;-63
2022/04/11 09:25:19;;;;;;;5.07;3.45;;;11.60;1.00;;;;;;7378014;19;20018;-61
2022/04/11 09:27:50;;;;;;;5.60;3.25;;;11.70;1.00;;;;;;7360997;19;20011;-62
2022/04/11 09:30:22;;;;;;;4.45;3.20;;;11.40;1.00;;;;;;7362613;19;20045;-61
2022/04/11 09:33:05;;;;;;;5.88;3.17;;;11.50;1.00;;;;;;7359752;19;20032;-61
2022/04/11 09:35:37;;;;;;;4.22;2.55;;;11.80;1.00;;;;;;7354693;19;20020;-61
2022/04/11 09:38:09;;;;;;;5.18;3.10;;;11.50;1.00;;;;;;7359831;19;20015;-61
2022/04/11 09:40:44;;;;;;;4.65;2.80;;;11.70;1.00;;;;;;7381847;19;20020;-64
2022/04/11 09:43:16;;;;;;;3.78;2.88;;;11.70;1.00;;;;;;7380352;19;20022;-61
2022/04/11 09:45:48;;;;;;;5.20;3.10;;;11.80;1.00;;;;;;7350857;19;20010;-61
2022/04/11 09:48:22;;;;;;;4.95;2.45;;;12.10;1.00;;;;;;7357705;19;20014;-62
2022/04/11 09:50:52;;;;;;;6.68;2.80;;;12.20;1.00;;;;;;7358352;19;20010;-62
2022/04/11 09:53:24;;;;;;;5.13;2.97;;;11.90;1.00;;;;;;7357645;19;20542;-62
2022/04/11 09:55:57;;;;;;;3.95;2.78;;;12.40;1.00;;;;;;7359732;19;20015;-61
2022/04/11 09:58:27;;;;;;;3.33;2.47;;;12.40;1.00;;;;;;7390260;19;20166;-61
2022/04/11 10:00:57;;;;;;;3.88;2.85;;;12.60;1.00;;;;;;7368218;19;20021;-61
2022/04/11 10:03:30;;;;;;;5.63;3.40;;;12.80;1.00;;;;;;7362924;19;20031;-62
2022/04/11 10:06:05;;;;;;;6.63;3.05;;;12.80;1.00;;;;;;7359412;19;20031;-61
2022/04/11 10:08:35;;;;;;;6.10;2.53;;;13.00;1.00;;;;;;7367626;19;20476;-62
2022/04/11 10:11:09;;;;;;;3.50;2.47;;;12.60;1.00;;;;;;7367405;19;20069;-61
2022/04/11 10:13:40;;;;;;;4.38;2.65;;;13.00;1.00;;;;;;7385636;19;20429;-65
2022/04/11 10:16:10;;;;;;;3.40;2.53;;;12.50;1.00;;;;;;7380900;19;20023;-61
2022/04/11 10:18:40;;;;;;;3.80;2.53;;;12.90;1.00;;;;;;7366328;19;20514;-61
2022/04/11 10:21:11;;;;;;;7.10;4.90;;;13.10;1.00;;;;;;7367116;19;20034;-61
2022/04/11 10:24:05;;;;;;;3.40;2.20;;;13.20;1.00;;;;;;7361949;19;20015;-61
2022/04/11 10:26:47;;;;;;;4.82;2.20;;;12.80;1.00;;;;;;7360075;19;20017;-61
2022/04/11 10:29:32;;;;;;;3.08;2.10;;;13.00;1.00;;;;;;7369018;19;20015;-61
2022/04/11 10:32:10;;;;;;;3.28;2.08;;;12.90;1.00;;;;;;7364367;19;20014;-62
2022/04/11 10:34:47;;;;;;;2.90;1.85;;;12.90;1.00;;;;;;7375999;19;20006;-62
2022/04/11 10:37:17;;;;;;;3.40;2.33;;;12.80;1.00;;;;;;7384998;19;20035;-61
2022/04/11 10:39:48;;;;;;;4.20;2.10;;;13.20;1.00;;;;;;7364207;19;20210;-62
2022/04/11 10:42:22;;;;;;;2.65;1.80;;;13.30;1.00;;;;;;7362016;19;20062;-61
2022/04/11 10:44:56;;;;;;;3.03;2.00;;;12.90;1.00;;;;;;7361616;19;20010;-61
2022/04/11 10:47:50;;;;;;;3.25;1.60;;;13.10;1.00;;;;;;7363298;19;20023;-61
2022/04/11 10:50:35;;;;;;;3.22;2.75;;;12.80;1.00;;;;;;7365431;19;20081;-62
2022/04/11 10:53:09;;;;;;;;;;;13.30;1.00;;;;;;7362259;19;20093;-61
2022/04/11 10:55:56;;;;;;;3.38;2.15;;;13.60;1.00;;;;;;7377494;19;20375;-65
2022/04/11 10:58:49;;;;;;;8.30;4.15;;;13.80;1.00;;;;;;7391194;19;20014;-61
2022/04/11 11:01:49;;;;;;;3.08;1.98;;;13.60;1.00;;;;;;7368618;19;20073;-61
2022/04/11 11:04:25;;;;;;;3.30;2.10;;;13.50;1.00;;;;;;7363659;19;20548;-61
2022/04/11 11:07:24;;;;;;;2.20;1.67;;;13.30;1.00;;;;;;7363778;19;20139;-61
2022/04/11 11:10:02;;;;;;;3.45;1.58;;;13.20;1.00;;;;;;7366884;19;20021;-61
2022/04/11 11:12:32;;;;;;;3.13;1.65;;;13.30;1.00;;;;;;7367071;19;20014;-61
2022/04/11 11:15:28;;;;;;;2.50;2.05;;;13.50;1.00;;;;;;7364330;19;20466;-62
2022/04/11 11:18:00;;;;;;;4.65;2.33;;;13.80;1.00;;;;;;7363270;19;20437;-62
2022/04/11 11:20:34;;;;;;;5.05;2.00;;;13.80;1.00;;;;;;7365849;19;20011;-61
2022/04/11 11:23:16;;;;;;;;;;;14.10;1.00;;;;;;7365487;19;20011;-61
2022/04/11 11:25:46;;;;;;;3.88;2.20;;;13.90;1.00;;;;;;7357897;19;19922;-62
2022/04/11 11:28:17;;;;;;;3.20;1.83;;;14.00;1.00;;;;;;7379398;19;20107;-61
2022/04/11 11:30:49;;;;;;;4.25;2.00;;;14.10;1.00;;;;;;7365369;19;20474;-61
2022/04/11 11:33:20;;;;;;;2.17;1.60;;;14.10;1.00;;;;;;7365343;19;20025;-61
2022/04/11 11:35:53;;;;;;;2.30;1.60;;;14.00;1.00;;;;;;7361892;19;20431;-62
2022/04/11 11:38:25;;;;;;;7.75;3.10;;;14.00;1.00;;;;;;7360477;19;20018;-61
2022/04/11 11:40:56;;;;;;;3.97;2.00;;;14.20;1.00;;;;;;7363418;19;20010;-62
2022/04/11 11:43:27;;;;;;;3.47;1.83;;;14.20;1.00;;;;;;7384971;19;20478;-62
2022/04/11 11:46:03;;;;;;;3.17;2.58;;;13.90;1.00;;;;;;7361489;19;20362;-61
2022/04/11 11:48:35;;;;;;;2.78;1.92;;;13.90;1.00;;;;;;7360807;19;20010;-60
2022/04/11 11:51:05;;;;;;;3.88;1.92;;;14.10;1.00;;;;;;7366258;19;20003;-61
2022/04/11 11:53:43;;;;;;;2.33;1.75;;;14.20;1.00;;;;;;7364539;19;20082;-62
2022/04/11 11:56:13;;;;;;;3.45;2.40;;;13.90;1.00;;;;;;7361176;19;20048;-62
2022/04/11 11:58:43;;;;;;;5.20;1.75;;;14.00;1.00;;;;;;7363411;19;20047;-62
2022/04/11 12:01:17;;;;;;;3.05;2.00;;;13.90;1.00;;;;;;7387515;19;20015;-61
2022/04/11 12:06:31;;;;;;;3.50;2.10;;;14.50;1.00;;;;;;7359103;19;20014;-62
2022/04/11 12:09:03;;;;;;;2.10;1.80;;;14.10;1.00;;;;;;7364148;19;20129;-62
2022/04/11 12:11:34;;;;;;;3.50;1.92;;;14.30;1.00;;;;;;7365248;19;20896;-62
2022/04/11 12:14:05;;;;;;;4.63;2.20;;;14.60;1.00;;;;;;7362459;19;20079;-61
2022/04/11 12:16:40;;;;;;;3.75;2.15;;;14.50;1.00;;;;;;7378489;19;20020;-61
2022/04/11 12:19:09;;;;;;;;;;;14.80;1.00;;;;;;7362528;19;20087;-61
2022/04/11 12:21:44;;;;;;;2.80;1.77;;;15.30;1.00;;;;;;7363512;19;19937;-60
2022/04/11 12:24:14;;;;;;;3.50;2.00;;;15.30;1.00;;;;;;7362078;19;20483;-63
2022/04/11 12:26:51;;;;;;;2.95;1.77;;;15.20;1.00;;;;;;7356944;19;20552;-62
2022/04/11 12:29:21;;;;;;;2.42;2.20;;;15.20;1.00;;;;;;7363455;19;20372;-61
2022/04/11 12:32:01;;;;;;;3.63;2.15;;;14.90;1.00;;;;;;7364054;19;20086;-61
2022/04/11 12:34:36;;;;;;;2.60;1.85;;;14.80;1.00;;;;;;7384707;19;20018;-62
2022/04/11 12:37:07;;;;;;;2.13;1.70;;;14.80;1.00;;;;;;7358540;19;20011;-62
2022/04/11 12:39:56;;;;;;;3.80;1.85;;;15.20;1.00;;;;;;7362977;19;20500;-62
2022/04/11 12:42:28;;;;;;;2.63;1.88;;;15.10;1.00;;;;;;7363178;19;20011;-60
2022/04/11 12:45:04;;;;;;;2.90;2.08;;;15.10;1.00;;;;;;7362799;19;20518;-62
2022/04/11 12:48:04;;;;;;;3.17;1.85;;;15.20;1.00;;;;;;7358047;19;20503;-61
2022/04/11 12:50:35;;;;;;;1.98;1.75;;;15.00;1.00;;;;;;7363202;19;20007;-63
2022/04/11 12:53:06;;;;;;;3.20;2.03;;;15.30;1.00;;;;;;7363902;19;20482;-62
2022/04/11 12:55:37;;;;;;;2.72;1.80;;;15.50;1.00;;;;;;7372063;19;20051;-61
2022/04/11 12:58:10;;;;;;;2.92;1.80;;;15.40;1.00;;;;;;7362288;19;20336;-61
2022/04/11 13:00:42;;;;;;;2.92;2.00;;;15.10;1.00;;;;;;7361698;19;20013;-62
2022/04/11 13:03:21;;;;;;;3.17;1.95;;;15.40;1.00;;;;;;7364885;19;20014;-61
2022/04/11 13:05:51;;;;;;;2.47;2.10;;;15.60;1.00;;;;;;7359249;19;20162;-62
2022/04/11 13:08:21;;;;;;;3.90;1.95;;;15.40;1.00;;;;;;7362235;19;20017;-61
2022/04/11 13:10:55;;;;;;;3.67;1.90;;;15.30;1.00;;;;;;7363454;19;20081;-61
2022/04/11 13:13:25;;;;;;;3.70;1.80;;;15.70;1.00;;;;;;7384652;19;20577;-61
2022/04/11 13:18:40;;;;;;;3.03;2.20;;;15.70;1.00;;;;;;7361533;19;20011;-61
2022/04/11 13:21:10;;;;;;;4.75;2.33;;;15.70;1.00;;;;;;7363211;19;20011;-61
2022/04/11 13:23:45;;;;;;;;;;;16.00;1.00;;;;;;7362146;19;20015;-62
2022/04/11 13:26:14;;;;;;;5.72;2.20;;;16.30;1.00;;;;;;7357377;19;19921;-62
2022/04/11 13:28:44;;;;;;;2.55;1.90;;;15.80;1.00;;;;;;7365082;19;20014;-62